Time;durP1;ratioP1;P1;durP2;ratioP2;P2;SDS_P1;SDS_P2;PMS_P1;PMS_P2;Temp;Humidity;BMP_temperature;BMP_pressure;BME280_temperature;BME280_humidity;BME280_pressure;Samples;Min_cycle;Max_cycle;Signal;HPM_P1;HPM_P2
2023/11/12 00:00:36;;;;;;;9.47;8.57;;;7.80;1.00;;;;;;5135774;27;20963;-71
2023/11/12 00:03:03;;;;;;;9.40;8.50;;;7.70;1.00;;;;;;5126872;27;20912;-72
2023/11/12 00:05:30;;;;;;;9.67;8.67;;;7.70;1.00;;;;;;5145358;27;20579;-71
2023/11/12 00:07:57;;;;;;;9.60;8.70;;;7.70;1.00;;;;;;5146930;27;20451;-71
2023/11/12 00:10:25;;;;;;;9.33;8.20;;;7.70;1.00;;;;;;5117318;27;20481;-71
2023/11/12 00:12:52;;;;;;;8.33;7.53;;;7.70;1.00;;;;;;5137450;27;20982;-71
2023/11/12 00:15:21;;;;;;;9.47;8.60;;;7.80;1.00;;;;;;5144965;27;20978;-72
2023/11/12 00:17:47;;;;;;;10.60;8.93;;;7.80;1.00;;;;;;5139122;27;20445;-71
2023/11/12 00:20:14;;;;;;;10.00;8.00;;;7.80;1.00;;;;;;5119903;27;20464;-71
2023/11/12 00:22:43;;;;;;;9.20;8.10;;;7.80;1.00;;;;;;5123278;27;20460;-71
2023/11/12 00:25:12;;;;;;;10.23;9.33;;;7.90;1.00;;;;;;5124588;27;20469;-74
2023/11/12 00:27:39;;;;;;;9.90;8.87;;;7.80;1.00;;;;;;5125727;27;20456;-71
2023/11/12 00:30:08;;;;;;;9.70;8.70;;;7.80;1.00;;;;;;5132098;27;20556;-72
2023/11/12 00:32:37;;;;;;;8.77;7.87;;;7.90;1.00;;;;;;5123037;27;20457;-72
2023/11/12 00:35:05;;;;;;;9.73;8.83;;;7.80;1.00;;;;;;5128127;27;20549;-71
2023/11/12 00:37:32;;;;;;;10.17;8.97;;;7.90;1.00;;;;;;5125510;27;20464;-73
2023/11/12 00:39:59;;;;;;;10.43;9.43;;;7.80;1.00;;;;;;5139807;27;20466;-73
2023/11/12 00:42:26;;;;;;;10.87;9.67;;;7.90;1.00;;;;;;5139850;27;20483;-71
2023/11/12 00:44:53;;;;;;;10.13;9.17;;;7.80;1.00;;;;;;5145040;27;20460;-72
2023/11/12 00:47:20;;;;;;;10.10;8.87;;;7.80;1.00;;;;;;5144671;27;20545;-76
2023/11/12 00:49:49;;;;;;;11.00;9.90;;;7.80;1.00;;;;;;5124042;27;20592;-74
2023/11/12 00:52:16;;;;;;;11.07;9.90;;;7.80;1.00;;;;;;5121932;27;20457;-72
2023/11/12 00:54:43;;;;;;;11.07;9.97;;;7.80;1.00;;;;;;5122245;27;20471;-73
2023/11/12 00:57:10;;;;;;;9.87;8.87;;;7.70;1.00;;;;;;5124252;27;21699;-71
2023/11/12 00:59:37;;;;;;;11.00;10.00;;;7.80;1.00;;;;;;5123229;27;20561;-73
2023/11/12 01:02:04;;;;;;;10.80;9.30;;;7.80;1.00;;;;;;5140967;27;20445;-72
2023/11/12 01:04:31;;;;;;;10.50;9.50;;;7.80;1.00;;;;;;5127598;27;20471;-74
2023/11/12 01:07:02;;;;;;;12.33;9.77;;;7.80;1.00;;;;;;5125008;27;20455;-72
2023/11/12 01:09:29;;;;;;;10.80;9.70;;;7.80;1.00;;;;;;5124985;27;20457;-72
2023/11/12 01:11:56;;;;;;;10.30;8.63;;;7.80;1.00;;;;;;5140024;27;20455;-73
2023/11/12 01:14:23;;;;;;;10.43;9.43;;;7.80;1.00;;;;;;5145380;27;20605;-72
2023/11/12 01:16:50;;;;;;;9.57;8.67;;;7.80;1.00;;;;;;5123871;27;20449;-72
2023/11/12 01:19:17;;;;;;;8.83;8.00;;;7.70;1.00;;;;;;5123757;27;20533;-73
2023/11/12 01:21:47;;;;;;;9.83;8.80;;;7.70;1.00;;;;;;5127322;27;20468;-72
2023/11/12 01:24:17;;;;;;;10.70;9.17;;;7.80;1.00;;;;;;5144539;27;21210;-72
2023/11/12 01:26:44;;;;;;;9.60;8.47;;;7.70;1.00;;;;;;5146774;27;21027;-72
2023/11/12 01:29:11;;;;;;;9.60;8.60;;;7.70;1.00;;;;;;5128929;27;20894;-71
2023/11/12 01:31:38;;;;;;;10.43;9.50;;;7.60;1.00;;;;;;5139971;27;20481;-72
2023/11/12 01:34:07;;;;;;;9.60;8.60;;;7.60;1.00;;;;;;5124796;27;21267;-74
2023/11/12 01:36:35;;;;;;;9.53;8.60;;;7.60;1.00;;;;;;5135783;27;20454;-71
2023/11/12 01:39:02;;;;;;;9.20;8.30;;;7.60;1.00;;;;;;5127294;27;20461;-74
2023/11/12 01:41:31;;;;;;;9.57;8.57;;;7.70;1.00;;;;;;5137334;27;20457;-70
2023/11/12 01:43:58;;;;;;;9.70;7.87;;;7.50;1.00;;;;;;5130696;27;20548;-72
2023/11/12 01:46:26;;;;;;;9.60;8.73;;;7.50;1.00;;;;;;5144065;27;20982;-72
2023/11/12 01:48:54;;;;;;;8.50;7.60;;;7.50;1.00;;;;;;5145767;27;20578;-73
2023/11/12 01:51:22;;;;;;;9.10;7.43;;;7.60;1.00;;;;;;5142316;27;20535;-72
2023/11/12 01:53:50;;;;;;;8.63;7.73;;;7.60;1.00;;;;;;5126128;27;20571;-72
2023/11/12 01:56:20;;;;;;;9.40;7.97;;;7.70;1.00;;;;;;5123051;27;20521;-72
2023/11/12 01:58:49;;;;;;;8.80;7.90;;;7.70;1.00;;;;;;5124320;27;20561;-72
2023/11/12 02:01:17;;;;;;;8.10;7.30;;;7.70;1.00;;;;;;5122256;27;20456;-71
2023/11/12 02:03:44;;;;;;;9.20;8.30;;;7.70;1.00;;;;;;5131537;27;20497;-72
2023/11/12 02:06:12;;;;;;;7.77;7.07;;;7.60;1.00;;;;;;5127816;27;21198;-76
2023/11/12 02:08:40;;;;;;;8.90;8.00;;;7.70;1.00;;;;;;5126500;27;20432;-76
2023/11/12 02:11:09;;;;;;;9.17;7.80;;;7.80;1.00;;;;;;5131671;27;20456;-72
2023/11/12 02:13:37;;;;;;;8.27;7.30;;;7.80;1.00;;;;;;5143459;27;20521;-75
2023/11/12 02:16:06;;;;;;;8.10;7.30;;;7.80;1.00;;;;;;5124938;27;20591;-73
2023/11/12 02:18:33;;;;;;;8.17;7.37;;;7.80;1.00;;;;;;5120426;27;21313;-73
2023/11/12 02:21:03;;;;;;;9.07;8.17;;;7.90;1.00;;;;;;5122543;27;20452;-70
2023/11/12 02:23:30;;;;;;;9.77;7.40;;;7.90;1.00;;;;;;5119650;27;20484;-74
2023/11/12 02:26:00;;;;;;;7.90;7.17;;;7.90;1.00;;;;;;5124603;27;20540;-72
2023/11/12 02:28:28;;;;;;;7.37;6.57;;;7.90;1.00;;;;;;5122370;27;20979;-73
2023/11/12 02:30:55;;;;;;;7.90;7.00;;;7.90;1.00;;;;;;5123605;27;20532;-72
2023/11/12 02:33:26;;;;;;;9.00;6.93;;;7.90;1.00;;;;;;5124562;27;20497;-72
2023/11/12 02:35:55;;;;;;;7.20;6.50;;;7.90;1.00;;;;;;5144663;27;20445;-72
2023/11/12 02:38:22;;;;;;;8.37;7.50;;;7.90;1.00;;;;;;5124931;27;21141;-72
2023/11/12 02:40:49;;;;;;;6.97;6.33;;;8.00;1.00;;;;;;5122188;27;20445;-71
2023/11/12 02:43:20;;;;;;;8.30;7.13;;;8.00;1.00;;;;;;5125609;27;20559;-72
2023/11/12 02:45:47;;;;;;;7.87;7.17;;;8.00;1.00;;;;;;5121933;27;20452;-71
2023/11/12 02:48:15;;;;;;;8.80;6.90;;;8.10;1.00;;;;;;5123019;27;20481;-71
2023/11/12 02:50:43;;;;;;;7.70;6.07;;;8.10;1.00;;;;;;5125101;27;20502;-72
2023/11/12 02:53:11;;;;;;;7.67;6.97;;;8.00;1.00;;;;;;5145843;27;20978;-72
2023/11/12 02:55:38;;;;;;;8.80;7.30;;;8.00;1.00;;;;;;5143089;27;20967;-72
2023/11/12 02:58:05;;;;;;;7.50;6.70;;;8.10;1.00;;;;;;5144417;27;20601;-72
2023/11/12 03:00:34;;;;;;;7.70;7.00;;;8.10;1.00;;;;;;5136684;27;20897;-71
2023/11/12 03:03:02;;;;;;;7.50;6.80;;;8.10;1.00;;;;;;5141796;27;21400;-71
2023/11/12 03:05:31;;;;;;;8.70;7.73;;;8.10;1.00;;;;;;5143987;27;20456;-72
2023/11/12 03:07:58;;;;;;;8.17;7.23;;;8.20;1.00;;;;;;5144451;27;20527;-72
2023/11/12 03:10:25;;;;;;;7.30;6.60;;;8.20;1.00;;;;;;5120050;27;20455;-72
2023/11/12 03:12:53;;;;;;;8.30;7.10;;;8.20;1.00;;;;;;5124626;27;20464;-71
2023/11/12 03:15:20;;;;;;;8.20;7.40;;;8.20;1.00;;;;;;5127719;27;20456;-68
2023/11/12 03:17:50;;;;;;;9.20;7.40;;;8.10;1.00;;;;;;5125902;27;20533;-71
2023/11/12 03:20:17;;;;;;;7.37;6.67;;;8.10;1.00;;;;;;5123465;27;22441;-69
2023/11/12 03:22:45;;;;;;;8.40;6.60;;;8.00;1.00;;;;;;5135100;27;20543;-68
2023/11/12 03:25:12;;;;;;;7.30;6.60;;;8.10;1.00;;;;;;5145552;27;20583;-69
2023/11/12 03:27:39;;;;;;;8.63;6.97;;;8.10;1.00;;;;;;5146084;27;20604;-68
2023/11/12 03:30:08;;;;;;;7.53;6.83;;;8.10;1.00;;;;;;5144181;27;20444;-69
2023/11/12 03:32:34;;;;;;;8.13;7.27;;;8.20;1.00;;;;;;5147311;27;20460;-68
2023/11/12 03:35:04;;;;;;;7.67;6.90;;;8.10;1.00;;;;;;5139199;27;20986;-69
2023/11/12 03:37:31;;;;;;;7.70;7.00;;;8.00;1.00;;;;;;5124879;27;21008;-71
2023/11/12 03:39:58;;;;;;;7.90;6.87;;;8.00;1.00;;;;;;5141929;27;20552;-67
2023/11/12 03:42:25;;;;;;;8.23;7.50;;;8.00;1.00;;;;;;5132621;27;20528;-68
2023/11/12 03:44:52;;;;;;;7.30;6.63;;;8.10;1.00;;;;;;5147751;27;20789;-68
2023/11/12 03:47:22;;;;;;;7.70;6.90;;;8.00;1.00;;;;;;5135507;27;20541;-71
2023/11/12 03:49:49;;;;;;;9.60;7.83;;;8.00;1.00;;;;;;5146091;27;21825;-70
2023/11/12 03:52:18;;;;;;;7.13;6.43;;;8.00;1.00;;;;;;5127641;27;21410;-71
2023/11/12 03:54:45;;;;;;;8.13;7.33;;;8.00;1.00;;;;;;5134499;27;20944;-69
2023/11/12 03:57:13;;;;;;;7.93;7.23;;;8.00;1.00;;;;;;5129747;27;20964;-72
2023/11/12 03:59:40;;;;;;;7.70;6.73;;;8.00;1.00;;;;;;5124453;27;20460;-68
2023/11/12 04:02:07;;;;;;;8.20;7.40;;;8.00;1.00;;;;;;5119128;27;21010;-68
2023/11/12 04:04:34;;;;;;;7.20;6.50;;;8.00;1.00;;;;;;5141486;27;20595;-69
2023/11/12 04:07:01;;;;;;;7.53;6.83;;;7.90;1.00;;;;;;5124106;27;21258;-71
2023/11/12 04:09:29;;;;;;;7.83;7.00;;;7.90;1.00;;;;;;5121556;27;20510;-69
2023/11/12 04:11:56;;;;;;;7.50;6.80;;;7.90;1.00;;;;;;5136225;27;20512;-70
2023/11/12 04:14:23;;;;;;;7.00;6.40;;;7.90;1.00;;;;;;5146214;27;20532;-74
2023/11/12 04:16:49;;;;;;;7.93;7.13;;;7.90;1.00;;;;;;5129315;27;20530;-69
2023/11/12 04:19:17;;;;;;;8.20;7.23;;;7.90;1.00;;;;;;5145399;27;20452;-71
2023/11/12 04:21:47;;;;;;;7.70;6.53;;;7.90;1.00;;;;;;5122293;27;21280;-72
2023/11/12 04:24:14;;;;;;;8.57;7.27;;;7.90;1.00;;;;;;5143253;27;23088;-68
2023/11/12 04:26:42;;;;;;;9.77;7.33;;;7.80;1.00;;;;;;5143319;27;20460;-71
2023/11/12 04:29:09;;;;;;;8.03;7.23;;;7.90;1.00;;;;;;5147689;27;20458;-72
2023/11/12 04:31:39;;;;;;;8.17;7.37;;;7.90;1.00;;;;;;5146244;27;20484;-71
2023/11/12 04:34:07;;;;;;;7.83;7.13;;;7.80;1.00;;;;;;5147690;27;20994;-71
2023/11/12 04:36:36;;;;;;;8.47;7.40;;;7.80;1.00;;;;;;5143555;27;20528;-71
2023/11/12 04:39:03;;;;;;;8.30;7.40;;;7.90;1.00;;;;;;5145572;27;20460;-70
2023/11/12 04:41:30;;;;;;;8.00;7.00;;;7.90;1.00;;;;;;5134954;27;20546;-72
2023/11/12 04:43:59;;;;;;;9.13;7.00;;;7.90;1.00;;;;;;5142763;27;20453;-74
2023/11/12 04:46:26;;;;;;;7.87;7.17;;;7.90;1.00;;;;;;5135840;27;21269;-75
2023/11/12 04:48:52;;;;;;;7.37;6.67;;;7.90;1.00;;;;;;5127275;27;20453;-72
2023/11/12 04:51:20;;;;;;;7.27;6.57;;;7.90;1.00;;;;;;5127688;27;20468;-71
2023/11/12 04:53:48;;;;;;;7.50;6.80;;;7.90;1.00;;;;;;5126243;27;20531;-72
2023/11/12 04:56:15;;;;;;;7.70;6.20;;;7.90;1.00;;;;;;5127475;27;20495;-71
2023/11/12 04:58:42;;;;;;;7.13;6.43;;;8.00;1.00;;;;;;5126293;27;20454;-74
2023/11/12 05:01:11;;;;;;;8.30;7.47;;;8.00;1.00;;;;;;5126954;27;20468;-73
2023/11/12 05:03:38;;;;;;;7.40;6.67;;;8.00;1.00;;;;;;5139598;27;20981;-72
2023/11/12 05:06:06;;;;;;;8.43;6.63;;;8.00;1.00;;;;;;5144007;27;20483;-72
2023/11/12 05:08:33;;;;;;;7.83;6.93;;;8.00;1.00;;;;;;5143675;27;20511;-73
2023/11/12 05:11:00;;;;;;;6.97;6.27;;;8.00;1.00;;;;;;5139204;27;20464;-72
2023/11/12 05:13:27;;;;;;;6.40;5.80;;;8.00;1.00;;;;;;5122981;27;20527;-72
2023/11/12 05:15:54;;;;;;;6.57;5.97;;;8.00;1.00;;;;;;5125062;27;20476;-73
2023/11/12 05:18:22;;;;;;;7.37;6.27;;;8.00;1.00;;;;;;5124430;27;20496;-73
2023/11/12 05:20:49;;;;;;;8.03;6.83;;;8.00;1.00;;;;;;5129324;27;20522;-72
2023/11/12 05:23:16;;;;;;;7.37;6.60;;;8.10;1.00;;;;;;5123811;27;20507;-70
2023/11/12 05:25:45;;;;;;;7.13;6.43;;;8.10;1.00;;;;;;5133112;27;20599;-72
2023/11/12 05:28:12;;;;;;;7.23;6.53;;;8.00;1.00;;;;;;5125356;27;20590;-70
2023/11/12 05:30:39;;;;;;;7.60;6.20;;;8.00;1.00;;;;;;5119154;27;20969;-71
2023/11/12 05:33:07;;;;;;;7.70;6.70;;;8.00;1.00;;;;;;5122585;27;20529;-72
2023/11/12 05:35:35;;;;;;;6.47;5.77;;;7.90;1.00;;;;;;5124043;27;21431;-74
2023/11/12 05:38:02;;;;;;;7.77;5.80;;;8.00;1.00;;;;;;5124143;27;20456;-75
2023/11/12 05:40:30;;;;;;;7.33;6.63;;;8.10;1.00;;;;;;5120722;27;20468;-77
2023/11/12 05:42:57;;;;;;;6.80;5.93;;;8.10;1.00;;;;;;5117023;27;20449;-76
2023/11/12 05:45:25;;;;;;;8.40;6.70;;;8.00;1.00;;;;;;5122645;27;21230;-74
2023/11/12 05:47:51;;;;;;;7.83;7.03;;;8.00;1.00;;;;;;5133521;27;20515;-77
2023/11/12 05:50:19;;;;;;;7.13;5.90;;;8.00;1.00;;;;;;5136905;27;20560;-72
2023/11/12 05:52:47;;;;;;;6.40;5.80;;;8.00;1.00;;;;;;5123799;27;20995;-77
2023/11/12 05:55:14;;;;;;;7.87;7.07;;;8.00;1.00;;;;;;5120544;27;20471;-77
2023/11/12 05:57:41;;;;;;;6.80;6.10;;;8.10;1.00;;;;;;5121458;27;20476;-73
2023/11/12 06:00:10;;;;;;;6.57;5.97;;;8.10;1.00;;;;;;5121021;27;21524;-77
2023/11/12 06:02:37;;;;;;;7.60;6.60;;;8.10;1.00;;;;;;5113970;27;20463;-77
2023/11/12 06:05:05;;;;;;;7.87;7.13;;;8.20;1.00;;;;;;5123114;27;20455;-74
2023/11/12 06:07:32;;;;;;;7.13;6.43;;;8.10;1.00;;;;;;5141217;27;20433;-76
2023/11/12 06:10:01;;;;;;;8.00;7.20;;;8.10;1.00;;;;;;5145126;27;20480;-77
2023/11/12 06:12:30;;;;;;;7.60;6.83;;;8.10;1.00;;;;;;5140096;27;21085;-78
2023/11/12 06:14:56;;;;;;;8.20;6.77;;;8.20;1.00;;;;;;5122237;27;20460;-74
2023/11/12 06:17:24;;;;;;;7.37;6.67;;;8.20;1.00;;;;;;5118567;27;20449;-78
2023/11/12 06:19:51;;;;;;;7.43;6.67;;;8.20;1.00;;;;;;5133052;27;21456;-75
2023/11/12 06:22:19;;;;;;;9.10;7.10;;;8.20;1.00;;;;;;5135145;27;20838;-74
2023/11/12 06:24:46;;;;;;;7.90;7.10;;;8.30;1.00;;;;;;5141504;27;20464;-76
2023/11/12 06:27:15;;;;;;;8.30;7.50;;;8.30;1.00;;;;;;5137231;27;20492;-75
2023/11/12 06:29:43;;;;;;;7.67;6.47;;;8.30;1.00;;;;;;5119467;27;20468;-76
2023/11/12 06:32:10;;;;;;;8.10;7.30;;;8.30;1.00;;;;;;5120095;27;21273;-74
2023/11/12 06:34:38;;;;;;;7.17;6.47;;;8.30;1.00;;;;;;5120282;27;21151;-75
2023/11/12 06:37:05;;;;;;;6.93;6.23;;;8.30;1.00;;;;;;5125854;27;20481;-74
2023/11/12 06:39:32;;;;;;;7.37;6.67;;;8.30;1.00;;;;;;5124924;27;20483;-75
2023/11/12 06:41:59;;;;;;;7.10;6.40;;;8.30;1.00;;;;;;5118803;27;20451;-75
2023/11/12 06:44:27;;;;;;;7.03;6.43;;;8.30;1.00;;;;;;5126298;27;20545;-73
2023/11/12 06:46:54;;;;;;;6.90;6.10;;;8.20;1.00;;;;;;5133217;27;20453;-69
2023/11/12 06:49:21;;;;;;;6.67;5.93;;;8.10;1.00;;;;;;5122494;27;20518;-71
2023/11/12 06:51:48;;;;;;;8.00;7.13;;;8.10;1.00;;;;;;5127740;27;20785;-71
2023/11/12 06:54:14;;;;;;;7.13;6.53;;;8.10;1.00;;;;;;5124966;27;20540;-69
2023/11/12 06:56:41;;;;;;;7.10;6.50;;;8.10;1.00;;;;;;5125344;27;20457;-70
2023/11/12 06:59:08;;;;;;;6.73;6.03;;;8.00;1.00;;;;;;5125236;27;21033;-71
2023/11/12 07:01:37;;;;;;;6.90;6.30;;;8.10;1.00;;;;;;5126405;27;20599;-70
2023/11/12 07:04:06;;;;;;;6.23;5.67;;;8.00;1.00;;;;;;5125982;27;21628;-71
2023/11/12 07:06:33;;;;;;;6.70;6.10;;;8.00;1.00;;;;;;5127214;27;20461;-70
2023/11/12 07:09:00;;;;;;;6.80;6.10;;;8.00;1.00;;;;;;5137854;27;20550;-71
2023/11/12 07:11:27;;;;;;;8.73;7.83;;;8.10;1.00;;;;;;5126405;27;20453;-70
2023/11/12 07:13:54;;;;;;;6.30;5.70;;;8.10;1.00;;;;;;5136173;27;21041;-73
2023/11/12 07:16:21;;;;;;;8.57;7.70;;;8.10;1.00;;;;;;5146918;27;20535;-70
2023/11/12 07:18:50;;;;;;;6.47;5.87;;;8.20;1.00;;;;;;5144948;27;20456;-72
2023/11/12 07:21:24;;;;;;;6.87;6.20;;;8.20;1.00;;;;;;5130021;27;20976;-71
2023/11/12 07:23:52;;;;;;;7.03;6.43;;;8.30;1.00;;;;;;5145899;27;20466;-70
2023/11/12 07:26:19;;;;;;;8.03;7.23;;;8.40;1.00;;;;;;5149007;27;21288;-70
2023/11/12 07:28:45;;;;;;;6.93;6.23;;;8.40;1.00;;;;;;5146415;27;20466;-71
2023/11/12 07:31:12;;;;;;;7.20;5.80;;;8.50;1.00;;;;;;5147711;27;20504;-70
2023/11/12 07:33:39;;;;;;;6.73;6.03;;;8.60;1.00;;;;;;5145333;27;20909;-69
2023/11/12 07:36:09;;;;;;;7.07;6.20;;;8.60;1.00;;;;;;5138418;27;20451;-70
2023/11/12 07:38:37;;;;;;;6.47;5.87;;;8.70;1.00;;;;;;5143129;27;20479;-70
2023/11/12 07:41:05;;;;;;;7.33;6.63;;;8.50;1.00;;;;;;5144255;27;20478;-72
2023/11/12 07:43:34;;;;;;;7.20;6.50;;;8.50;1.00;;;;;;5133837;27;20533;-71
2023/11/12 07:46:00;;;;;;;7.47;6.77;;;8.50;1.00;;;;;;5139853;27;20468;-72
2023/11/12 07:48:27;;;;;;;6.30;5.70;;;8.50;1.00;;;;;;5142465;27;20476;-69
2023/11/12 07:50:55;;;;;;;6.40;5.73;;;8.60;1.00;;;;;;5144737;27;20556;-73
2023/11/12 07:53:23;;;;;;;6.47;5.73;;;8.80;1.00;;;;;;5143165;27;20947;-70
2023/11/12 07:55:51;;;;;;;7.27;6.67;;;8.90;1.00;;;;;;5141919;27;20968;-70
2023/11/12 07:58:18;;;;;;;7.30;6.60;;;9.00;1.00;;;;;;5121248;27;20615;-70
2023/11/12 08:00:45;;;;;;;8.10;6.37;;;9.10;1.00;;;;;;5125992;27;25188;-71
2023/11/12 08:03:12;;;;;;;6.70;6.00;;;9.10;1.00;;;;;;5122127;27;20435;-73
2023/11/12 08:05:40;;;;;;;8.30;5.97;;;9.00;1.00;;;;;;5121502;27;20977;-72
2023/11/12 08:08:07;;;;;;;6.70;6.10;;;9.10;1.00;;;;;;5127631;27;20472;-71
2023/11/12 08:10:37;;;;;;;6.70;6.10;;;9.10;1.00;;;;;;5134856;27;20551;-73
2023/11/12 08:13:04;;;;;;;6.83;6.20;;;9.20;1.00;;;;;;5130129;27;20535;-71
2023/11/12 08:15:30;;;;;;;7.30;6.57;;;9.20;1.00;;;;;;5123481;27;20837;-70
2023/11/12 08:17:57;;;;;;;7.53;6.83;;;9.30;1.00;;;;;;5123266;27;20875;-69
2023/11/12 08:20:24;;;;;;;6.87;6.27;;;9.30;1.00;;;;;;5137218;27;21051;-70
2023/11/12 08:22:51;;;;;;;7.73;6.80;;;9.30;1.00;;;;;;5144451;27;20579;-69
2023/11/12 08:25:18;;;;;;;8.70;7.90;;;9.40;1.00;;;;;;5144229;27;20509;-72
2023/11/12 08:27:46;;;;;;;7.83;7.03;;;9.40;1.00;;;;;;5137181;27;20468;-70
2023/11/12 08:30:14;;;;;;;7.77;6.53;;;9.50;1.00;;;;;;5123012;27;20901;-69
2023/11/12 08:32:40;;;;;;;6.87;6.23;;;9.50;1.00;;;;;;5129088;27;20477;-69
2023/11/12 08:35:09;;;;;;;8.60;7.20;;;9.50;1.00;;;;;;5121289;27;20448;-70
2023/11/12 08:37:36;;;;;;;6.33;5.73;;;9.50;1.00;;;;;;5120850;27;20480;-70
2023/11/12 08:40:04;;;;;;;7.17;6.47;;;9.60;1.00;;;;;;5135092;27;21180;-70
2023/11/12 08:42:31;;;;;;;7.60;6.97;;;9.70;1.00;;;;;;5135397;27;20560;-69
2023/11/12 08:45:00;;;;;;;9.80;7.70;;;9.90;1.00;;;;;;5137983;27;20609;-70
2023/11/12 08:47:27;;;;;;;6.83;6.23;;;9.90;1.00;;;;;;5136370;27;20495;-70
2023/11/12 08:49:56;;;;;;;9.37;7.50;;;10.00;1.00;;;;;;5122295;27;20465;-69
2023/11/12 08:52:23;;;;;;;8.90;8.00;;;9.80;1.00;;;;;;5131780;27;20464;-71
2023/11/12 08:54:51;;;;;;;8.17;7.03;;;9.80;1.00;;;;;;5136904;27;20662;-73
2023/11/12 08:57:18;;;;;;;7.80;7.03;;;9.70;1.00;;;;;;5143700;27;21258;-73
2023/11/12 08:59:46;;;;;;;9.00;8.10;;;9.80;1.00;;;;;;5140811;27;20449;-70
2023/11/12 09:02:14;;;;;;;7.90;7.10;;;9.90;1.00;;;;;;5124346;27;20452;-74
2023/11/12 09:04:41;;;;;;;11.93;10.70;;;10.00;1.00;;;;;;5140723;27;20504;-76
2023/11/12 09:07:09;;;;;;;8.20;6.80;;;10.20;1.00;;;;;;5129238;27;20487;-76
2023/11/12 09:09:36;;;;;;;6.90;6.30;;;10.30;1.00;;;;;;5124471;27;20449;-74
2023/11/12 09:12:04;;;;;;;7.40;6.70;;;10.20;1.00;;;;;;5143992;27;20547;-75
2023/11/12 09:14:31;;;;;;;7.93;7.00;;;10.30;1.00;;;;;;5139693;27;20460;-73
2023/11/12 09:16:57;;;;;;;8.20;6.47;;;10.40;1.00;;;;;;5126831;27;20500;-74
2023/11/12 09:19:26;;;;;;;7.30;6.60;;;10.40;1.00;;;;;;5127745;27;21029;-73
2023/11/12 09:21:53;;;;;;;7.83;6.53;;;10.50;1.00;;;;;;5135651;27;20590;-74
2023/11/12 09:24:20;;;;;;;7.47;6.77;;;10.80;1.00;;;;;;5139649;27;21094;-74
2023/11/12 09:26:50;;;;;;;7.00;6.30;;;11.00;1.00;;;;;;5143635;27;20457;-77
2023/11/12 09:29:17;;;;;;;6.93;5.80;;;11.00;1.00;;;;;;5128818;27;20470;-75
2023/11/12 09:31:44;;;;;;;6.07;5.50;;;11.20;1.00;;;;;;5123800;27;20458;-75
2023/11/12 09:34:11;;;;;;;5.07;4.17;;;11.10;1.00;;;;;;5128047;27;20450;-74
2023/11/12 09:36:39;;;;;;;4.97;4.57;;;10.80;1.00;;;;;;5127437;27;20472;-74
2023/11/12 09:39:06;;;;;;;5.40;4.90;;;10.70;1.00;;;;;;5143438;27;20883;-75
2023/11/12 09:41:36;;;;;;;7.63;6.23;;;10.90;1.00;;;;;;5145046;27;21144;-73
2023/11/12 09:44:03;;;;;;;6.87;6.27;;;11.20;1.00;;;;;;5135008;27;20453;-74
2023/11/12 09:46:32;;;;;;;6.80;6.20;;;11.20;1.00;;;;;;5119284;27;20473;-75
2023/11/12 09:48:59;;;;;;;5.13;4.73;;;10.80;1.00;;;;;;5124416;27;20468;-75
2023/11/12 09:51:27;;;;;;;7.70;7.00;;;10.60;1.00;;;;;;5123463;27;20461;-74
2023/11/12 09:53:59;;;;;;;5.07;4.30;;;10.60;1.00;;;;;;5123275;27;20509;-74
2023/11/12 09:56:26;;;;;;;7.37;5.23;;;10.60;1.00;;;;;;5122590;27;21339;-73
2023/11/12 09:58:53;;;;;;;6.00;5.40;;;10.50;1.00;;;;;;5136428;27;20460;-75
2023/11/12 10:01:21;;;;;;;5.50;5.00;;;10.40;1.00;;;;;;5133603;27;21329;-77
2023/11/12 10:03:50;;;;;;;5.47;4.90;;;10.30;1.00;;;;;;5124043;27;20448;-75
2023/11/12 10:06:20;;;;;;;7.90;7.20;;;10.20;1.00;;;;;;5118243;27;20554;-76
2023/11/12 10:08:47;;;;;;;5.20;4.70;;;10.10;1.00;;;;;;5120429;27;20440;-76
2023/11/12 10:11:17;;;;;;;4.53;4.13;;;10.00;1.00;;;;;;5136145;27;20460;-74
2023/11/12 10:13:44;;;;;;;5.30;4.60;;;9.90;1.00;;;;;;5135880;27;20505;-74
2023/11/12 10:16:25;;;;;;;5.50;4.70;;;10.00;1.00;;;;;;5134907;27;20501;-68
2023/11/12 10:18:53;;;;;;;4.97;4.47;;;10.10;1.00;;;;;;5134379;27;20544;-70
2023/11/12 10:21:20;;;;;;;5.60;5.10;;;10.10;1.00;;;;;;5137609;27;20448;-69
2023/11/12 10:23:47;;;;;;;5.37;4.87;;;10.10;1.00;;;;;;5123951;27;20464;-70
2023/11/12 10:26:16;;;;;;;5.53;5.03;;;10.10;1.00;;;;;;5124679;27;20461;-72
2023/11/12 10:28:43;;;;;;;5.70;5.20;;;10.20;1.00;;;;;;5133506;27;20925;-72
2023/11/12 10:31:13;;;;;;;5.30;4.80;;;10.30;1.00;;;;;;5129156;27;20468;-72
2023/11/12 10:33:43;;;;;;;6.33;5.60;;;10.40;1.00;;;;;;5121987;27;20995;-72
2023/11/12 10:36:13;;;;;;;5.70;5.20;;;10.30;1.00;;;;;;5124976;27;21346;-71
2023/11/12 10:38:48;;;;;;;6.27;5.03;;;10.20;1.00;;;;;;5123080;27;20425;-70
2023/11/12 10:41:15;;;;;;;6.63;6.00;;;10.20;1.00;;;;;;5119865;27;24846;-71
2023/11/12 10:43:57;;;;;;;6.03;5.53;;;10.10;1.00;;;;;;5123256;27;20461;-74
2023/11/12 10:46:26;;;;;;;5.37;4.90;;;10.00;1.00;;;;;;5134397;27;21094;-72
2023/11/12 10:48:56;;;;;;;4.17;3.83;;;10.00;1.00;;;;;;5141993;27;20451;-71
2023/11/12 10:51:27;;;;;;;6.57;5.87;;;10.00;1.00;;;;;;5145730;27;20551;-70
2023/11/12 10:53:58;;;;;;;6.53;5.80;;;10.00;1.00;;;;;;5131117;27;20456;-71
2023/11/12 10:56:27;;;;;;;6.83;6.13;;;10.00;1.00;;;;;;5145366;27;20629;-71
2023/11/12 10:58:56;;;;;;;7.50;6.53;;;10.00;1.00;;;;;;5126349;27;20449;-72
2023/11/12 11:01:26;;;;;;;6.90;6.03;;;10.10;1.00;;;;;;5124502;27;20461;-71
2023/11/12 11:03:54;;;;;;;10.70;9.80;;;10.10;1.00;;;;;;5124830;27;20480;-71
2023/11/12 11:06:23;;;;;;;6.67;6.17;;;10.20;1.00;;;;;;5127157;27;20967;-72
2023/11/12 11:08:51;;;;;;;7.13;6.43;;;10.20;1.00;;;;;;5125263;27;20457;-74
2023/11/12 11:11:19;;;;;;;7.83;6.60;;;10.10;1.00;;;;;;5126001;27;20457;-72
2023/11/12 11:13:47;;;;;;;8.90;7.87;;;10.00;1.00;;;;;;5128299;27;20519;-71
2023/11/12 11:16:46;;;;;;;6.57;5.97;;;10.00;1.00;;;;;;5149379;27;20464;-72
2023/11/12 11:19:14;;;;;;;6.20;5.70;;;10.00;1.00;;;;;;5147158;27;20511;-71
2023/11/12 11:21:42;;;;;;;8.70;5.13;;;10.10;1.00;;;;;;5146958;27;21045;-70
2023/11/12 11:24:09;;;;;;;4.10;3.70;;;10.10;1.00;;;;;;5130640;27;20457;-72
2023/11/12 11:26:39;;;;;;;4.40;4.00;;;10.10;1.00;;;;;;5140891;27;20463;-71
2023/11/12 11:29:18;;;;;;;4.63;4.07;;;10.10;1.00;;;;;;5129928;27;20449;-72
2023/11/12 11:32:21;;;;;;;4.77;4.37;;;10.10;1.00;;;;;;5153095;27;20452;-72
2023/11/12 11:34:48;;;;;;;5.80;5.30;;;10.00;1.00;;;;;;5130337;27;20464;-72
2023/11/12 11:37:19;;;;;;;6.17;5.60;;;10.10;1.00;;;;;;5141405;27;20552;-72
2023/11/12 11:39:46;;;;;;;5.80;5.30;;;10.10;1.00;;;;;;5130491;27;20455;-71
2023/11/12 11:42:13;;;;;;;6.20;5.60;;;10.20;1.00;;;;;;5136625;27;20575;-72
2023/11/12 11:44:45;;;;;;;5.93;5.43;;;10.10;1.00;;;;;;5125818;27;20540;-71
2023/11/12 11:47:14;;;;;;;6.83;6.13;;;10.10;1.00;;;;;;5146932;27;20627;-73
2023/11/12 11:49:45;;;;;;;8.37;7.57;;;10.00;1.00;;;;;;5148614;27;20571;-73
2023/11/12 11:52:18;;;;;;;7.37;6.67;;;9.90;1.00;;;;;;5129472;27;21317;-72
2023/11/12 11:54:46;;;;;;;8.00;7.20;;;9.80;1.00;;;;;;5125835;27;21115;-73
2023/11/12 11:57:17;;;;;;;9.17;8.30;;;9.70;1.00;;;;;;5130135;27;20461;-74
2023/11/12 11:59:47;;;;;;;8.47;7.60;;;9.60;1.00;;;;;;5127622;27;20488;-73
2023/11/12 12:02:16;;;;;;;9.30;8.40;;;9.60;1.00;;;;;;5136181;27;20490;-72
2023/11/12 12:04:52;;;;;;;9.73;8.83;;;9.60;1.00;;;;;;5132540;27;20469;-72
2023/11/12 12:07:23;;;;;;;9.37;8.47;;;9.70;1.00;;;;;;5148875;27;20460;-73
2023/11/12 12:09:50;;;;;;;9.50;8.60;;;9.90;1.00;;;;;;5126407;27;20524;-72
2023/11/12 12:12:18;;;;;;;10.93;8.90;;;9.80;1.00;;;;;;5138665;27;20956;-72
2023/11/12 12:14:45;;;;;;;10.33;9.33;;;9.80;1.00;;;;;;5147586;27;21621;-73
2023/11/12 12:17:13;;;;;;;11.33;10.23;;;9.80;1.00;;;;;;5137357;27;20488;-74
2023/11/12 12:19:41;;;;;;;11.53;10.20;;;9.90;1.00;;;;;;5130784;27;20453;-73
2023/11/12 12:22:09;;;;;;;11.00;9.50;;;10.10;1.00;;;;;;5125052;27;20506;-74
2023/11/12 12:24:39;;;;;;;11.83;10.67;;;10.10;1.00;;;;;;5129275;27;20461;-76
2023/11/12 12:27:09;;;;;;;10.90;9.90;;;10.20;1.00;;;;;;5121166;27;20507;-74
2023/11/12 12:29:38;;;;;;;11.57;10.57;;;10.40;1.00;;;;;;5127937;27;20961;-74
2023/11/12 12:32:15;;;;;;;10.90;9.90;;;10.60;1.00;;;;;;5132297;27;20445;-76
2023/11/12 12:34:43;;;;;;;10.53;9.63;;;10.80;1.00;;;;;;5145800;27;20590;-74
2023/11/12 12:37:19;;;;;;;9.27;8.10;;;10.80;1.00;;;;;;5144581;27;20464;-72
2023/11/12 12:39:52;;;;;;;10.57;9.50;;;10.90;1.00;;;;;;5139275;27;21161;-74
2023/11/12 12:42:20;;;;;;;11.90;10.67;;;11.00;1.00;;;;;;5129633;27;20492;-70
2023/11/12 12:44:49;;;;;;;9.60;8.73;;;11.10;1.00;;;;;;5126578;27;20876;-71
2023/11/12 12:47:29;;;;;;;9.27;8.37;;;11.10;1.00;;;;;;5135951;27;20459;-73
2023/11/12 12:49:58;;;;;;;8.90;8.00;;;11.10;1.00;;;;;;5120906;27;21159;-72
2023/11/12 12:52:26;;;;;;;9.70;8.73;;;11.00;1.00;;;;;;5142879;27;20456;-75
2023/11/12 12:54:53;;;;;;;7.73;7.10;;;11.00;1.00;;;;;;5151318;27;20460;-71
2023/11/12 12:57:24;;;;;;;8.13;6.90;;;10.80;1.00;;;;;;5133942;27;20518;-70
2023/11/12 12:59:51;;;;;;;8.33;7.40;;;10.60;1.00;;;;;;5132826;27;20938;-74
2023/11/12 13:02:19;;;;;;;8.90;8.00;;;10.60;1.00;;;;;;5134037;27;20489;-72
2023/11/12 13:04:47;;;;;;;8.57;7.80;;;10.60;1.00;;;;;;5129379;27;20505;-71
2023/11/12 13:07:15;;;;;;;8.10;7.07;;;10.50;1.00;;;;;;5129140;27;20822;-73